ムンバイ の空港の天気 - METARとTAF

チャットラパティー・シヴァージー国際空港 ( VABB / BOM ) - インド ムンバイ
飛行場実況気象(Metar)
観測時間04/30 20:00 IST (04/30 14:30 UTC)
風向・風速北北東 3m/s
視程4000m
天気現象煙霧
全天の4割程度の雲 雲底高度 610m
気温29℃
湿度74%
気圧1010hPa
METARVABB 301430Z 03005KT 4000 HZ SCT020 29/24 Q1010 NOSIG
過去の天気等 Google飛行場航空写真 Wunderground天気予報

過去48時間のMETAR

飛行場予報(TAF)
発表時間: 4/30 16:30 IST (4/30 11:00 UTC)
予報対象時間: 30日17時 IST ~ 1日23時 IST
風向・風速西 4m/s 瞬間風速 9m/s
視程5,000m
天気現象
なし
30日18時 IST ~ 30日20時 IST に徐々に
風向・風速西 4m/s
視程3,000m
天気現象煙霧
1日3時 IST ~ 1日5時 IST に徐々に
風向・風速東 2m/s
1日9時 IST ~ 1日11時 IST に徐々に
風向・風速西 4m/s 瞬間風速 9m/s
視程5,000m
天気現象
1日18時 IST ~ 1日20時 IST に徐々に
風向・風速西 4m/s
視程3,000m
天気現象煙霧
TAF VABB 301100Z 3012/0118 27008G18KT 5000 FU NSC
BECMG 3013/3015 27008KT 3000 HZ
BECMG 3022/3024 08004KT
BECMG 0104/0106 28007G17KT 5000 FU
BECMG 0113/0115 27008KT 3000 HZ